Time;durP1;ratioP1;P1;durP2;ratioP2;P2;SDS_P1;SDS_P2;PMS_P1;PMS_P2;Temp;Humidity;BMP_temperature;BMP_pressure;BME280_temperature;BME280_humidity;BME280_pressure;Samples;Min_cycle;Max_cycle;Signal;HPM_P1;HPM_P2
2022/06/17 00:02:23;;;;;;;24.77;11.33;;;13.40;99.90;;;;;;4396264;28;659111;-68
2022/06/17 00:05:10;;;;;;;28.20;13.47;;;13.30;99.90;;;;;;4385437;28;657214;-68
2022/06/17 00:07:59;;;;;;;25.93;13.67;;;13.40;99.90;;;;;;4403169;28;658242;-68
2022/06/17 00:10:46;;;;;;;24.87;12.50;;;13.40;99.90;;;;;;4387548;28;658277;-68
2022/06/17 00:13:33;;;;;;;25.57;13.73;;;13.20;99.90;;;;;;4403298;28;658339;-68
2022/06/17 00:16:21;;;;;;;26.40;15.82;;;13.30;99.90;;;;;;4386846;28;657564;-68
2022/06/17 00:19:08;;;;;;;24.15;14.77;;;13.20;99.90;;;;;;4402585;28;658739;-68
2022/06/17 00:21:55;;;;;;;24.83;13.97;;;13.20;99.90;;;;;;4378302;28;657226;-68
2022/06/17 00:24:44;;;;;;;26.40;14.70;;;13.10;99.90;;;;;;4400741;28;658969;-67
2022/06/17 00:27:31;;;;;;;27.77;15.70;;;13.20;99.90;;;;;;4380441;28;657532;-67
2022/06/17 00:30:19;;;;;;;26.67;14.73;;;13.20;99.90;;;;;;4404600;28;658562;-67
2022/06/17 00:33:06;;;;;;;25.07;14.77;;;13.20;99.90;;;;;;4381770;28;657786;-67
2022/06/17 00:35:54;;;;;;;29.60;15.60;;;13.10;99.90;;;;;;4403451;28;659054;-67
2022/06/17 00:38:41;;;;;;;23.90;13.80;;;13.20;99.90;;;;;;4376027;28;657993;-67
2022/06/17 00:41:33;;;;;;;23.67;13.30;;;13.10;99.90;;;;;;4392884;28;657717;-67
2022/06/17 00:44:25;;;;;;;24.97;14.00;;;13.10;99.90;;;;;;4359363;28;657908;-67
2022/06/17 00:47:18;;;;;;;25.03;14.40;;;13.20;99.90;;;;;;4382540;28;658003;-67
2022/06/17 00:50:13;;;;;;;26.73;16.53;;;13.10;99.90;;;;;;4356016;28;657264;-67
2022/06/17 00:53:04;;;;;;;27.50;15.67;;;13.20;99.90;;;;;;4367331;28;657963;-67
2022/06/17 00:55:54;;;;;;;41.90;19.20;;;13.30;99.90;;;;;;4386048;28;659021;-68
2022/06/17 00:59:03;;;;;;;31.57;19.60;;;13.30;99.90;;;;;;4380100;28;657790;-68
2022/06/17 01:01:53;;;;;;;33.17;16.53;;;13.40;99.90;;;;;;4364046;28;659057;-68
2022/06/17 01:04:43;;;;;;;29.67;15.10;;;13.40;99.90;;;;;;4397488;28;657563;-68
2022/06/17 01:07:37;;;;;;;26.07;14.80;;;13.40;99.90;;;;;;4388163;28;657740;-68
2022/06/17 01:10:23;;;;;;;27.47;14.73;;;13.40;99.90;;;;;;4390383;28;657924;-68
2022/06/17 01:13:11;;;;;;;28.80;15.70;;;13.30;99.90;;;;;;4379198;28;658147;-68
2022/06/17 01:15:59;;;;;;;29.53;15.47;;;13.30;99.90;;;;;;4412520;28;658333;-68
2022/06/17 01:18:46;;;;;;;25.77;15.47;;;13.20;99.90;;;;;;4384661;28;657543;-67
2022/06/17 01:21:37;;;;;;;29.43;17.43;;;13.30;99.90;;;;;;4404495;28;657565;-68
2022/06/17 01:24:25;;;;;;;24.13;15.03;;;13.30;99.90;;;;;;4380433;28;658082;-68
2022/06/17 01:27:12;;;;;;;29.87;14.23;;;13.20;99.90;;;;;;4387257;28;658100;-68
2022/06/17 01:29:59;;;;;;;32.37;16.50;;;13.20;99.90;;;;;;4407672;28;657489;-68
2022/06/17 01:32:48;;;;;;;26.67;15.83;;;13.10;99.90;;;;;;4384846;28;658316;-68
2022/06/17 01:35:39;;;;;;;32.03;14.63;;;13.20;99.90;;;;;;4383996;28;658036;-68
2022/06/17 01:38:27;;;;;;;29.00;18.23;;;13.20;99.90;;;;;;4381720;28;657819;-68
2022/06/17 01:41:15;;;;;;;31.73;18.73;;;13.30;99.90;;;;;;4398294;28;657466;-68
2022/06/17 01:44:09;;;;;;;39.37;21.60;;;13.30;99.90;;;;;;4385104;28;658476;-68
2022/06/17 01:46:56;;;;;;;42.93;22.07;;;13.30;99.90;;;;;;4354767;28;657608;-68
2022/06/17 01:49:45;;;;;;;31.67;19.83;;;13.30;99.90;;;;;;4402046;28;658024;-68
2022/06/17 01:52:34;;;;;;;34.60;19.40;;;13.20;99.90;;;;;;4383044;28;658424;-69
2022/06/17 01:55:22;;;;;;;33.00;19.80;;;13.10;99.90;;;;;;4387062;28;657987;-68
2022/06/17 01:58:13;;;;;;;33.23;20.57;;;13.10;99.90;;;;;;4402283;28;658194;-68
2022/06/17 02:01:00;;;;;;;33.70;20.17;;;13.10;99.90;;;;;;4359056;28;657986;-68
2022/06/17 02:03:50;;;;;;;25.40;16.17;;;13.10;99.90;;;;;;4403840;28;658652;-68
2022/06/17 02:06:39;;;;;;;27.30;14.90;;;13.00;99.90;;;;;;4379028;28;659236;-68
2022/06/17 02:09:26;;;;;;;29.20;17.00;;;12.90;99.90;;;;;;4386920;28;657307;-68
2022/06/17 02:12:14;;;;;;;25.87;16.70;;;12.90;99.90;;;;;;4403114;28;657949;-68
2022/06/17 02:15:02;;;;;;;28.93;18.23;;;12.90;99.90;;;;;;4380598;28;658854;-68
2022/06/17 02:17:49;;;;;;;31.77;17.23;;;12.90;99.90;;;;;;4401521;28;658054;-68
2022/06/17 02:20:37;;;;;;;28.80;17.63;;;12.80;99.90;;;;;;4389127;28;658663;-68
2022/06/17 02:23:25;;;;;;;29.50;17.73;;;12.80;99.90;;;;;;4396378;28;657477;-68
2022/06/17 02:26:12;;;;;;;31.75;19.92;;;12.80;99.90;;;;;;4409443;28;659052;-68
2022/06/17 02:28:59;;;;;;;37.30;22.03;;;12.80;99.90;;;;;;4414284;28;658018;-68
2022/06/17 02:31:48;;;;;;;31.70;18.83;;;12.80;99.90;;;;;;4388385;28;657448;-68
2022/06/17 02:34:36;;;;;;;29.30;19.90;;;12.80;99.90;;;;;;4392910;28;657946;-68
2022/06/17 02:37:23;;;;;;;30.70;16.83;;;12.80;99.90;;;;;;4405757;28;658087;-68
2022/06/17 02:40:24;;;;;;;24.00;16.93;;;12.70;99.90;;;;;;4379353;28;657949;-68
2022/06/17 02:43:13;;;;;;;25.57;16.23;;;12.60;99.90;;;;;;4360530;28;658287;-68
2022/06/17 02:46:01;;;;;;;29.30;16.67;;;12.60;99.90;;;;;;4393999;28;657990;-68
2022/06/17 02:48:52;;;;;;;27.10;18.20;;;12.60;99.90;;;;;;4407991;28;657786;-68
2022/06/17 02:51:39;;;;;;;30.97;19.33;;;12.60;99.90;;;;;;4387126;28;657729;-68
2022/06/17 02:54:29;;;;;;;32.53;20.80;;;12.70;99.90;;;;;;4381462;28;657878;-68
2022/06/17 02:57:20;;;;;;;34.17;21.00;;;12.70;99.90;;;;;;4379030;28;657605;-68
2022/06/17 03:00:12;;;;;;;37.67;20.03;;;12.80;99.90;;;;;;4380615;28;658929;-68
2022/06/17 03:03:02;;;;;;;29.70;18.27;;;12.80;99.90;;;;;;4381712;28;658158;-68
2022/06/17 03:05:51;;;;;;;29.80;17.80;;;12.80;99.90;;;;;;4379775;28;657463;-68
2022/06/17 03:08:38;;;;;;;32.20;20.10;;;12.90;99.90;;;;;;4400057;28;657668;-68
2022/06/17 03:11:26;;;;;;;32.43;20.20;;;13.00;99.90;;;;;;4384067;28;657474;-68
2022/06/17 03:14:13;;;;;;;31.63;20.53;;;13.20;99.90;;;;;;4400005;28;657497;-68
2022/06/17 03:17:01;;;;;;;42.40;23.90;;;13.20;99.90;;;;;;4388150;28;657654;-68
2022/06/17 03:19:48;;;;;;;46.23;23.43;;;13.40;99.90;;;;;;4401176;28;658927;-68
2022/06/17 03:22:37;;;;;;;35.27;22.60;;;13.50;99.90;;;;;;4386111;28;657364;-68
2022/06/17 03:25:26;;;;;;;39.13;24.80;;;13.50;99.90;;;;;;4404739;28;658148;-68
2022/06/17 03:28:14;;;;;;;38.23;22.73;;;13.50;99.90;;;;;;4376610;28;658357;-70
2022/06/17 03:31:06;;;;;;;34.10;21.83;;;13.60;99.90;;;;;;4389317;28;658561;-70
2022/06/17 03:33:55;;;;;;;39.50;23.23;;;13.70;99.90;;;;;;4380103;28;658105;-69
2022/06/17 03:36:44;;;;;;;42.40;25.45;;;13.70;99.90;;;;;;4382148;28;658002;-69
2022/06/17 03:39:34;;;;;;;48.37;27.17;;;13.80;99.90;;;;;;4379394;28;657597;-69
2022/06/17 03:42:23;;;;;;;37.73;23.97;;;13.90;99.90;;;;;;4382771;28;657321;-69
2022/06/17 03:45:12;;;;;;;33.33;22.57;;;14.00;99.90;;;;;;4384580;28;657761;-69
2022/06/17 03:48:03;;;;;;;32.23;23.17;;;14.10;99.90;;;;;;4400765;28;658139;-69
2022/06/17 03:50:50;;;;;;;37.93;24.13;;;14.10;99.90;;;;;;4392140;28;657773;-69
2022/06/17 03:53:38;;;;;;;34.93;23.50;;;14.20;99.90;;;;;;4411143;28;658024;-69
2022/06/17 03:56:28;;;;;;;31.83;21.85;;;14.10;99.90;;;;;;4385242;28;657537;-69
2022/06/17 03:59:17;;;;;;;30.87;21.20;;;14.10;99.90;;;;;;4385298;28;658100;-69
2022/06/17 04:02:06;;;;;;;30.93;21.53;;;14.10;99.90;;;;;;4405958;28;657506;-69
2022/06/17 04:04:54;;;;;;;27.07;20.13;;;14.10;99.90;;;;;;4379916;28;659381;-69
2022/06/17 04:07:41;;;;;;;31.13;19.95;;;14.00;99.90;;;;;;4388551;28;657854;-69
2022/06/17 04:10:29;;;;;;;26.07;18.00;;;13.90;99.90;;;;;;4402536;28;658262;-69
2022/06/17 04:13:19;;;;;;;27.30;18.70;;;13.90;99.90;;;;;;4380633;28;657720;-69
2022/06/17 04:16:09;;;;;;;26.33;18.60;;;13.80;99.90;;;;;;4385931;28;657600;-69
2022/06/17 04:19:02;;;;;;;26.23;16.90;;;13.80;99.90;;;;;;4386111;28;658389;-69
2022/06/17 04:21:49;;;;;;;24.53;18.20;;;13.70;99.90;;;;;;4384190;28;658101;-69
2022/06/17 04:24:37;;;;;;;25.43;17.80;;;13.70;99.90;;;;;;4382535;28;657676;-69
2022/06/17 04:27:24;;;;;;;23.60;17.03;;;13.70;99.90;;;;;;4405508;28;657774;-69
2022/06/17 04:30:15;;;;;;;26.67;16.93;;;13.60;99.90;;;;;;4386827;28;657908;-69
2022/06/17 04:33:04;;;;;;;23.73;16.87;;;13.50;99.90;;;;;;4377224;28;658320;-69
2022/06/17 04:35:52;;;;;;;26.33;18.43;;;13.50;99.90;;;;;;4383091;28;657663;-69
2022/06/17 04:38:48;;;;;;;30.00;19.73;;;13.50;99.90;;;;;;4401524;28;657968;-69
2022/06/17 04:41:36;;;;;;;24.57;18.07;;;13.50;99.90;;;;;;4371930;28;658028;-69
2022/06/17 04:44:23;;;;;;;25.20;18.47;;;13.60;99.90;;;;;;4405607;28;657799;-69
2022/06/17 04:47:13;;;;;;;27.40;16.90;;;13.80;99.90;;;;;;4385496;28;657511;-69
2022/06/17 04:50:01;;;;;;;25.43;17.20;;;13.90;99.90;;;;;;4388559;28;658272;-69
2022/06/17 04:52:51;;;;;;;23.33;15.47;;;14.10;99.90;;;;;;4409398;28;657158;-69
2022/06/17 04:55:40;;;;;;;22.02;14.70;;;14.10;99.90;;;;;;4382463;28;658884;-69
2022/06/17 04:58:28;;;;;;;21.70;15.13;;;14.40;99.90;;;;;;4384165;28;658603;-69
2022/06/17 05:01:17;;;;;;;22.23;15.10;;;14.50;99.90;;;;;;4397865;28;657435;-69
2022/06/17 05:04:06;;;;;;;20.13;13.57;;;14.60;99.90;;;;;;4403749;28;657530;-69
2022/06/17 05:06:53;;;;;;;16.10;12.40;;;14.70;99.90;;;;;;4383057;28;658010;-69
2022/06/17 05:09:43;;;;;;;21.63;13.43;;;14.70;99.90;;;;;;4394926;28;657989;-69
2022/06/17 05:12:32;;;;;;;22.13;16.83;;;14.90;99.90;;;;;;4392493;28;657886;-69
2022/06/17 05:15:20;;;;;;;22.73;15.87;;;15.00;99.90;;;;;;4406481;28;657738;-69
2022/06/17 05:18:08;;;;;;;26.53;19.07;;;15.10;99.90;;;;;;4388761;28;658568;-69
2022/06/17 05:20:56;;;;;;;26.13;20.70;;;14.90;99.90;;;;;;4400022;28;658074;-68
2022/06/17 05:23:43;;;;;;;29.80;22.03;;;14.80;99.90;;;;;;4409023;28;657944;-68
2022/06/17 05:26:31;;;;;;;32.57;23.47;;;14.90;99.90;;;;;;4389028;28;657658;-68
2022/06/17 05:29:19;;;;;;;35.90;24.13;;;14.90;99.90;;;;;;4407032;28;657648;-68
2022/06/17 05:32:07;;;;;;;33.57;23.83;;;14.80;99.90;;;;;;4390578;28;657519;-68
2022/06/17 05:34:54;;;;;;;33.60;24.80;;;15.00;99.90;;;;;;4409498;28;658350;-68
2022/06/17 05:37:42;;;;;;;36.70;26.90;;;14.90;99.90;;;;;;4387118;28;657844;-68
2022/06/17 05:40:30;;;;;;;40.13;26.40;;;14.90;99.90;;;;;;4397179;28;657339;-68
2022/06/17 05:43:17;;;;;;;36.80;27.13;;;14.90;99.90;;;;;;4381558;28;659325;-68
2022/06/17 05:46:04;;;;;;;42.57;29.10;;;15.10;99.90;;;;;;4405564;28;657229;-68
2022/06/17 05:48:51;;;;;;;43.13;28.03;;;15.30;99.90;;;;;;4385854;28;657569;-68
2022/06/17 05:51:38;;;;;;;43.13;30.37;;;15.00;99.90;;;;;;4407040;28;658408;-68
2022/06/17 05:54:27;;;;;;;43.37;30.97;;;14.90;99.90;;;;;;4382724;28;657285;-68
2022/06/17 05:57:15;;;;;;;41.37;29.20;;;15.00;99.90;;;;;;4396779;28;657697;-68
2022/06/17 06:00:02;;;;;;;44.43;27.40;;;15.20;99.90;;;;;;4385216;28;659155;-68
2022/06/17 06:02:49;;;;;;;35.10;20.23;;;15.30;99.90;;;;;;4408034;28;657555;-68
2022/06/17 06:05:36;;;;;;;27.63;18.70;;;15.10;99.90;;;;;;4382456;28;657371;-68
2022/06/17 06:08:23;;;;;;;26.67;17.50;;;15.20;99.90;;;;;;4409600;28;659258;-68
2022/06/17 06:11:12;;;;;;;30.60;18.13;;;15.20;99.90;;;;;;4384277;28;657463;-68
2022/06/17 06:13:59;;;;;;;27.17;15.63;;;15.20;99.90;;;;;;4406678;28;657735;-68
2022/06/17 06:16:46;;;;;;;25.67;14.43;;;15.20;99.90;;;;;;4381980;28;657675;-68
2022/06/17 06:19:33;;;;;;;23.60;13.50;;;15.10;99.90;;;;;;4410989;28;658056;-68
2022/06/17 06:22:20;;;;;;;25.50;15.40;;;15.10;99.90;;;;;;4386060;28;657499;-68
2022/06/17 06:25:08;;;;;;;25.77;16.07;;;15.00;99.90;;;;;;4410229;28;658037;-68
2022/06/17 06:27:56;;;;;;;31.80;17.83;;;15.00;99.90;;;;;;4393269;28;659061;-68
2022/06/17 06:30:44;;;;;;;26.20;18.57;;;15.00;99.90;;;;;;4401741;28;657585;-68
2022/06/17 06:33:31;;;;;;;29.30;18.80;;;14.90;99.90;;;;;;4383184;28;657903;-68
2022/06/17 06:36:18;;;;;;;34.53;20.53;;;15.00;99.90;;;;;;4405844;28;658402;-68
2022/06/17 06:39:05;;;;;;;27.80;19.47;;;15.10;99.90;;;;;;4386290;28;657338;-68
2022/06/17 06:41:52;;;;;;;32.00;20.03;;;15.20;99.90;;;;;;4403750;28;658427;-68
2022/06/17 06:44:41;;;;;;;26.40;19.00;;;15.10;99.90;;;;;;4400318;28;657567;-68
2022/06/17 06:47:30;;;;;;;31.20;18.93;;;15.20;99.90;;;;;;4377708;28;658292;-68
2022/06/17 06:50:18;;;;;;;35.40;20.87;;;15.30;99.90;;;;;;4371246;28;658334;-68
2022/06/17 06:53:06;;;;;;;36.73;22.97;;;15.30;99.90;;;;;;4380984;28;657915;-68
2022/06/17 06:55:53;;;;;;;36.47;24.83;;;15.40;99.90;;;;;;4402270;28;658020;-68
2022/06/17 06:58:40;;;;;;;45.87;27.33;;;15.20;99.90;;;;;;4380566;28;657734;-68
2022/06/17 07:01:29;;;;;;;45.40;26.40;;;15.20;99.90;;;;;;4406178;28;659280;-68
2022/06/17 07:04:16;;;;;;;39.37;19.97;;;15.10;99.90;;;;;;4376534;28;657698;-68
2022/06/17 07:07:04;;;;;;;47.60;29.03;;;15.20;99.90;;;;;;4402377;28;658252;-68
2022/06/17 07:09:51;;;;;;;44.73;28.70;;;15.20;99.90;;;;;;4383848;28;657725;-68
2022/06/17 07:12:38;;;;;;;45.77;28.90;;;15.30;99.90;;;;;;4406409;28;658730;-68
2022/06/17 07:15:25;;;;;;;48.00;28.03;;;15.30;99.90;;;;;;4381151;28;657395;-68
2022/06/17 07:18:15;;;;;;;42.77;27.90;;;15.30;99.90;;;;;;4400990;28;658768;-68
2022/06/17 07:21:03;;;;;;;43.53;28.37;;;15.10;99.90;;;;;;4381968;28;658429;-68
2022/06/17 07:23:50;;;;;;;41.97;27.70;;;15.20;99.90;;;;;;4378574;28;657827;-68
2022/06/17 07:26:37;;;;;;;45.27;29.20;;;15.10;99.90;;;;;;4400095;28;658360;-68
2022/06/17 07:29:25;;;;;;;45.57;28.53;;;15.00;99.90;;;;;;4396658;28;657864;-68
2022/06/17 07:32:12;;;;;;;48.63;29.37;;;15.00;99.90;;;;;;4406459;28;657579;-68
2022/06/17 07:35:01;;;;;;;46.67;29.50;;;14.70;99.90;;;;;;4396512;28;658125;-68
2022/06/17 07:40:52;;;;;;;48.57;28.90;;;14.80;99.90;;;;;;4341167;28;658435;-68
2022/06/17 07:43:39;;;;;;;43.30;27.23;;;14.80;99.90;;;;;;4403377;28;657423;-68
2022/06/17 07:46:26;;;;;;;46.27;27.60;;;14.80;99.90;;;;;;4383757;28;657637;-68
2022/06/17 07:49:13;;;;;;;43.53;26.77;;;14.70;99.90;;;;;;4403776;28;658858;-68
2022/06/17 07:52:01;;;;;;;42.13;27.73;;;14.70;99.90;;;;;;4388645;28;657638;-68
2022/06/17 07:54:48;;;;;;;36.40;24.17;;;14.80;99.90;;;;;;4403692;28;658329;-68
2022/06/17 07:57:36;;;;;;;38.67;22.90;;;15.00;99.90;;;;;;4384379;28;658149;-68
2022/06/17 08:00:24;;;;;;;32.63;21.53;;;15.10;99.90;;;;;;4403530;28;658382;-68
2022/06/17 08:03:12;;;;;;;40.87;23.83;;;15.20;99.90;;;;;;4385494;28;658047;-68
2022/06/17 08:06:02;;;;;;;39.43;23.00;;;15.20;99.90;;;;;;4404046;28;657294;-68
2022/06/17 08:08:51;;;;;;;42.13;23.40;;;15.20;99.90;;;;;;4381790;28;658045;-68
2022/06/17 08:11:38;;;;;;;36.23;22.53;;;15.20;99.90;;;;;;4383272;28;658164;-68
2022/06/17 08:14:25;;;;;;;39.73;24.33;;;15.30;99.90;;;;;;4385892;28;658461;-68
2022/06/17 08:17:13;;;;;;;44.03;26.77;;;15.40;99.90;;;;;;4407423;28;658505;-68
2022/06/17 08:20:00;;;;;;;43.22;24.38;;;15.30;99.90;;;;;;4386383;28;657142;-68
2022/06/17 08:22:47;;;;;;;42.40;25.38;;;15.10;99.90;;;;;;4415256;28;658048;-68
2022/06/17 08:25:36;;;;;;;40.03;23.00;;;15.30;99.90;;;;;;4406851;28;658155;-68
2022/06/17 08:28:23;;;;;;;43.30;24.77;;;15.40;99.90;;;;;;4377155;28;659074;-68
2022/06/17 08:31:10;;;;;;;41.40;24.10;;;15.80;99.90;;;;;;4387037;28;657173;-68
2022/06/17 08:33:57;;;;;;;36.77;22.43;;;16.00;99.90;;;;;;4407222;28;657921;-68
2022/06/17 08:36:44;;;;;;;34.43;21.37;;;16.20;99.90;;;;;;4395024;28;657806;-68
2022/06/17 08:39:33;;;;;;;33.40;20.60;;;16.40;99.90;;;;;;4382898;28;658134;-68
2022/06/17 08:42:29;;;;;;;32.63;19.80;;;16.20;99.90;;;;;;4388188;28;658156;-68
2022/06/17 08:45:20;;;;;;;35.20;21.00;;;16.50;99.90;;;;;;4356926;28;657695;-68
2022/06/17 08:48:14;;;;;;;31.80;19.40;;;16.70;99.90;;;;;;4378798;28;658978;-68
2022/06/17 08:51:15;;;;;;;37.33;18.20;;;17.00;99.90;;;;;;4384527;28;657832;-68
2022/06/17 08:54:18;;;;;;;30.30;17.63;;;17.30;1.00;;;;;;4385713;28;658071;-68
2022/06/17 08:57:09;;;;;;;22.93;14.27;;;17.20;99.90;;;;;;4358907;28;656305;-68
2022/06/17 09:00:06;;;;;;;23.20;14.40;;;17.30;99.90;;;;;;4378225;28;657539;-68
2022/06/17 09:03:11;;;;;;;25.27;15.73;;;17.50;99.90;;;;;;4384726;28;657583;-68
2022/06/17 09:06:05;;;;;;;24.63;15.87;;;17.40;99.90;;;;;;4373985;28;658242;-68
2022/06/17 09:09:02;;;;;;;22.07;13.73;;;17.70;99.90;;;;;;4353647;28;657756;-68
2022/06/17 09:11:52;;;;;;;25.33;15.20;;;17.80;99.90;;;;;;4382531;28;657691;-68
2022/06/17 09:14:43;;;;;;;25.53;13.80;;;18.10;99.90;;;;;;4384498;28;657608;-68
2022/06/17 09:17:35;;;;;;;19.60;13.33;;;17.60;99.90;;;;;;4363412;28;657912;-69
2022/06/17 09:20:25;;;;;;;22.33;12.77;;;17.90;99.90;;;;;;4384612;28;658240;-69
2022/06/17 09:23:13;;;;;;;21.20;12.73;;;18.30;99.90;;;;;;4378225;28;658780;-69
2022/06/17 09:26:01;;;;;;;23.23;12.87;;;18.20;99.90;;;;;;4386415;28;657674;-68
2022/06/17 09:28:51;;;;;;;18.97;13.07;;;17.90;99.90;;;;;;4406068;28;657733;-68
2022/06/17 09:31:42;;;;;;;18.57;11.60;;;17.90;99.90;;;;;;4385457;28;657804;-68
2022/06/17 09:34:34;;;;;;;25.73;12.97;;;17.70;99.90;;;;;;4377101;28;657582;-68
2022/06/17 09:37:25;;;;;;;21.40;13.03;;;17.20;99.90;;;;;;4382253;28;657840;-68
2022/06/17 09:40:15;;;;;;;19.50;13.00;;;17.50;99.90;;;;;;4383761;28;657916;-68
2022/06/17 09:43:04;;;;;;;21.77;11.87;;;18.50;99.90;;;;;;4375808;28;658524;-68
2022/06/17 09:45:52;;;;;;;26.00;14.07;;;18.50;99.90;;;;;;4384279;28;657492;-67
2022/06/17 09:48:41;;;;;;;23.40;13.25;;;17.80;99.90;;;;;;4401009;28;657606;-68
2022/06/17 09:51:32;;;;;;;20.50;12.67;;;18.00;99.90;;;;;;4378695;28;658150;-68
2022/06/17 09:54:23;;;;;;;19.73;11.40;;;18.60;99.90;;;;;;4380238;28;657443;-68
2022/06/17 09:57:13;;;;;;;15.27;9.80;;;19.00;99.90;;;;;;4365799;28;657504;-68
2022/06/17 10:00:02;;;;;;;17.77;10.70;;;20.10;99.90;;;;;;4394161;28;657131;-68
2022/06/17 10:02:51;;;;;;;24.60;11.33;;;19.30;99.90;;;;;;4400341;28;657906;-68
2022/06/17 10:05:40;;;;;;;18.00;9.80;;;18.70;99.90;;;;;;4379233;28;657405;-68
2022/06/17 10:08:36;;;;;;;13.73;8.80;;;18.40;99.90;;;;;;4383167;28;657369;-68
2022/06/17 10:11:27;;;;;;;18.23;8.77;;;19.20;99.90;;;;;;4378238;28;656572;-68
2022/06/17 10:14:20;;;;;;;16.77;8.03;;;19.80;99.90;;;;;;4379430;28;656738;-68
2022/06/17 10:20:22;;;;;;;10.80;6.23;;;19.60;99.90;;;;;;4356891;28;657130;-68
2022/06/17 10:23:15;;;;;;;12.80;6.17;;;19.20;99.90;;;;;;4379856;28;657188;-68
2022/06/17 10:26:09;;;;;;;8.33;5.80;;;19.80;99.90;;;;;;4357718;28;657405;-68
2022/06/17 10:29:12;;;;;;;8.23;5.43;;;20.10;99.90;;;;;;4387191;28;656595;-68
2022/06/17 10:31:59;;;;;;;7.80;4.67;;;20.60;99.90;;;;;;4380971;28;655396;-68
2022/06/17 10:34:47;;;;;;;9.40;5.20;;;20.60;99.90;;;;;;4388509;28;656759;-68
2022/06/17 10:37:35;;;;;;;10.97;5.80;;;19.90;99.70;;;;;;4407637;28;656016;-68
2022/06/17 10:40:23;;;;;;;8.60;5.80;;;20.30;99.70;;;;;;4377861;28;657467;-68
2022/06/17 10:43:14;;;;;;;10.67;5.20;;;20.70;97.10;;;;;;4383398;28;655863;-68
2022/06/17 10:46:01;;;;;;;8.70;5.10;;;20.50;99.90;;;;;;4383605;28;657030;-68
2022/06/17 10:48:50;;;;;;;8.00;5.23;;;21.50;94.70;;;;;;4406154;28;655836;-68
2022/06/17 10:51:37;;;;;;;8.80;4.80;;;21.80;93.00;;;;;;4378354;28;656437;-68
2022/06/17 10:54:28;;;;;;;8.63;4.53;;;22.20;88.60;;;;;;4404097;28;655531;-68
2022/06/17 10:57:23;;;;;;;9.60;4.80;;;21.60;88.00;;;;;;4377507;28;655934;-68
2022/06/17 11:00:24;;;;;;;6.00;4.27;;;21.60;93.00;;;;;;4385247;28;656007;-67
2022/06/17 11:03:16;;;;;;;5.70;2.90;;;21.80;94.00;;;;;;4384095;28;655704;-67
2022/06/17 11:06:13;;;;;;;10.77;3.70;;;20.80;85.30;;;;;;4385956;28;656159;-67
2022/06/17 11:09:00;;;;;;;5.93;4.10;;;20.70;85.80;;;;;;4386793;28;656332;-67
2022/06/17 11:12:07;;;;;;;6.90;3.10;;;21.40;93.20;;;;;;4402439;28;656701;-67
2022/06/17 11:14:56;;;;;;;6.47;3.60;;;21.70;91.10;;;;;;4377575;28;655215;-67
2022/06/17 11:17:45;;;;;;;8.13;3.40;;;21.30;83.10;;;;;;4379926;28;656707;-67
2022/06/17 11:20:34;;;;;;;6.93;3.17;;;21.30;92.00;;;;;;4378066;28;656446;-68
2022/06/17 11:23:22;;;;;;;6.47;3.20;;;21.70;90.40;;;;;;4384330;28;655613;-68
2022/06/17 11:26:12;;;;;;;8.97;3.30;;;21.00;85.00;;;;;;4415506;28;655362;-68
2022/06/17 11:29:01;;;;;;;8.67;2.80;;;20.50;89.70;;;;;;4380728;28;657289;-67
2022/06/17 11:31:49;;;;;;;7.37;2.87;;;20.00;92.60;;;;;;4384527;28;656287;-67
2022/06/17 11:34:39;;;;;;;7.47;3.27;;;20.00;92.80;;;;;;4387789;28;655701;-67
2022/06/17 11:37:28;;;;;;;6.93;3.37;;;19.80;93.60;;;;;;4382517;28;655441;-68
2022/06/17 11:40:16;;;;;;;4.27;2.90;;;20.60;85.50;;;;;;4395205;28;656204;-68
2022/06/17 11:43:05;;;;;;;4.87;2.50;;;21.40;86.10;;;;;;4402529;28;655445;-67
2022/06/17 11:45:52;;;;;;;6.43;2.20;;;20.10;84.40;;;;;;4383474;28;656480;-67
2022/06/17 11:48:41;;;;;;;5.90;2.23;;;19.70;88.10;;;;;;4400621;28;655598;-67
2022/06/17 11:51:31;;;;;;;4.77;2.00;;;20.00;88.30;;;;;;4377157;28;656094;-67
2022/06/17 11:54:19;;;;;;;3.37;2.07;;;21.20;89.90;;;;;;4374369;28;656616;-68
2022/06/17 11:57:14;;;;;;;5.20;1.80;;;21.80;82.90;;;;;;4383995;28;655885;-67
2022/06/17 12:00:04;;;;;;;3.00;2.00;;;20.90;78.70;;;;;;4383544;28;655649;-67
2022/06/17 12:02:58;;;;;;;6.00;1.80;;;20.80;83.60;;;;;;4383200;28;655688;-67
2022/06/17 12:05:56;;;;;;;4.57;1.80;;;21.10;81.30;;;;;;4373428;28;656097;-67
2022/06/17 12:08:46;;;;;;;2.97;1.70;;;21.20;80.50;;;;;;4377657;28;655700;-67
2022/06/17 12:11:37;;;;;;;3.93;1.70;;;20.70;83.20;;;;;;4378163;28;656797;-67
2022/06/17 12:14:27;;;;;;;3.43;1.87;;;20.40;85.40;;;;;;4376476;28;656223;-68
2022/06/17 12:17:15;;;;;;;3.30;1.47;;;21.20;83.00;;;;;;4377681;28;656333;-68
2022/06/17 12:20:02;;;;;;;10.37;1.73;;;21.50;76.80;;;;;;4378229;28;656590;-68
2022/06/17 12:22:51;;;;;;;10.43;1.73;;;22.20;78.80;;;;;;4404464;28;656335;-68
2022/06/17 12:25:43;;;;;;;2.80;1.20;;;22.70;75.00;;;;;;4382509;28;657095;-69
2022/06/17 12:28:35;;;;;;;5.10;1.30;;;23.10;71.60;;;;;;4382279;28;655220;-68
2022/06/17 12:31:28;;;;;;;1.73;1.00;;;23.20;70.90;;;;;;4381068;28;656132;-68
2022/06/17 12:34:23;;;;;;;1.93;1.00;;;22.40;66.60;;;;;;4359604;28;656121;-68
2022/06/17 12:37:13;;;;;;;1.23;0.90;;;22.50;66.00;;;;;;4362114;28;655685;-68
2022/06/17 12:40:02;;;;;;;4.30;1.00;;;22.50;70.00;;;;;;4386771;28;655466;-67
2022/06/17 12:42:53;;;;;;;2.80;1.10;;;21.20;67.70;;;;;;4404860;28;655878;-67
2022/06/17 12:45:42;;;;;;;3.70;0.80;;;21.60;76.30;;;;;;4369932;28;655272;-67
2022/06/17 12:48:34;;;;;;;2.60;1.00;;;21.80;69.70;;;;;;4402913;28;655371;-67
2022/06/17 12:54:33;;;;;;;2.33;0.80;;;22.20;68.40;;;;;;4403210;28;655896;-67
2022/06/17 12:57:24;;;;;;;2.93;0.80;;;21.80;65.20;;;;;;4392711;28;655812;-67
2022/06/17 13:00:14;;;;;;;8.37;1.17;;;21.00;64.90;;;;;;4382663;28;655092;-67
2022/06/17 13:03:23;;;;;;;3.33;0.80;;;21.00;68.30;;;;;;4387957;28;655414;-67
2022/06/17 13:06:14;;;;;;;1.27;0.60;;;21.90;69.80;;;;;;4386628;28;655385;-67
2022/06/17 13:09:03;;;;;;;1.33;0.80;;;22.10;61.60;;;;;;4387699;28;655741;-67
2022/06/17 13:11:56;;;;;;;4.03;0.90;;;21.20;64.30;;;;;;4387845;28;656011;-67
2022/06/17 13:14:50;;;;;;;1.93;0.87;;;20.80;65.40;;;;;;4383159;28;656349;-67
2022/06/17 13:17:42;;;;;;;4.03;1.17;;;20.40;67.50;;;;;;4381562;28;655989;-67
2022/06/17 13:20:31;;;;;;;3.47;1.07;;;20.10;69.50;;;;;;4381114;28;655346;-67
2022/06/17 13:23:21;;;;;;;6.60;1.13;;;20.10;73.00;;;;;;4379798;28;656656;-67
2022/06/17 13:26:10;;;;;;;5.63;1.00;;;20.30;70.10;;;;;;4383949;28;656035;-67
2022/06/17 13:29:01;;;;;;;4.43;1.47;;;20.20;72.00;;;;;;4380708;28;656702;-66
2022/06/17 13:31:52;;;;;;;3.07;1.00;;;20.20;73.90;;;;;;4387763;28;657063;-67
2022/06/17 13:34:43;;;;;;;3.07;0.93;;;21.10;71.80;;;;;;4380489;28;656106;-67
2022/06/17 13:37:31;;;;;;;8.53;1.10;;;22.40;74.30;;;;;;4370093;28;655507;-67
2022/06/17 13:40:22;;;;;;;3.23;1.20;;;22.10;70.80;;;;;;4403486;28;656309;-67
2022/06/17 13:43:13;;;;;;;5.37;1.60;;;22.00;71.50;;;;;;4382136;28;655593;-67
2022/06/17 13:46:05;;;;;;;4.47;1.20;;;21.20;69.70;;;;;;4401752;28;654906;-67
2022/06/17 13:48:54;;;;;;;4.07;1.30;;;21.20;74.90;;;;;;4380601;28;656054;-67
2022/06/17 13:51:49;;;;;;;3.37;1.30;;;21.20;74.40;;;;;;4379537;28;655542;-67
2022/06/17 13:54:38;;;;;;;3.17;1.40;;;20.90;75.20;;;;;;4358309;28;656084;-67
2022/06/17 13:57:29;;;;;;;2.67;1.37;;;20.60;72.50;;;;;;4383388;28;655454;-67
2022/06/17 14:00:32;;;;;;;4.33;1.53;;;21.60;78.50;;;;;;4385727;28;655351;-67
2022/06/17 14:03:21;;;;;;;4.27;1.50;;;21.70;72.80;;;;;;4374260;28;655913;-67
2022/06/17 14:06:09;;;;;;;5.47;1.60;;;21.20;68.90;;;;;;4381754;28;656795;-67
2022/06/17 14:08:59;;;;;;;2.60;1.50;;;20.70;72.70;;;;;;4386382;28;655757;-67
2022/06/17 14:11:47;;;;;;;3.60;1.17;;;20.60;74.40;;;;;;4380983;28;655662;-66
2022/06/17 14:14:47;;;;;;;4.30;1.20;;;20.30;72.70;;;;;;4400813;28;655653;-66
2022/06/17 14:17:34;;;;;;;4.47;1.27;;;20.40;79.40;;;;;;4379158;28;656099;-67
2022/06/17 14:20:31;;;;;;;4.63;1.80;;;21.70;75.10;;;;;;4384344;28;655479;-67
2022/06/17 14:23:45;;;;;;;3.27;1.50;;;21.50;72.30;;;;;;4394334;28;656508;-67
2022/06/17 14:26:56;;;;;;;4.00;1.30;;;20.70;70.60;;;;;;4384307;28;655951;-66